createdAt,value
2023-05-21T00:00:46.418Z,1.63
2023-05-21T00:03:15.407Z,2.20
2023-05-21T00:05:43.749Z,1.38
2023-05-21T00:08:11.653Z,1.88
2023-05-21T00:10:39.374Z,1.50
2023-05-21T00:13:07.246Z,1.50
2023-05-21T00:15:35.581Z,1.52
2023-05-21T00:18:04.402Z,1.52
2023-05-21T00:20:32.992Z,1.88
2023-05-21T00:23:03.491Z,1.60
2023-05-21T00:25:31.273Z,1.85
2023-05-21T00:27:58.872Z,2.90
2023-05-21T00:30:26.470Z,2.30
2023-05-21T00:32:54.063Z,2.65
2023-05-21T00:35:21.868Z,2.53
2023-05-21T00:37:49.410Z,2.35
2023-05-21T00:40:17.127Z,1.95
2023-05-21T00:42:48.704Z,2.17
2023-05-21T00:45:16.410Z,2.45
2023-05-21T00:47:44.758Z,2.10
2023-05-21T00:50:12.730Z,1.95
2023-05-21T00:52:42.554Z,1.75
2023-05-21T00:55:10.641Z,3.17
2023-05-21T00:57:38.329Z,2.80
2023-05-21T01:00:09.567Z,3.00
2023-05-21T01:02:37.964Z,2.15
2023-05-21T01:05:09.074Z,2.47
2023-05-21T01:07:37.504Z,1.92
2023-05-21T01:10:06.314Z,2.83
2023-05-21T01:12:34.980Z,2.85
2023-05-21T01:15:03.633Z,2.25
2023-05-21T01:17:32.496Z,2.30
2023-05-21T01:20:00.398Z,2.63
2023-05-21T01:22:29.794Z,2.28
2023-05-21T01:24:57.974Z,2.90
2023-05-21T01:27:25.649Z,2.72
2023-05-21T01:29:53.303Z,3.33
2023-05-21T01:32:28.491Z,3.63
2023-05-21T01:35:05.406Z,3.75
2023-05-21T01:37:45.295Z,1.63
2023-05-21T01:40:18.961Z,2.97
2023-05-21T01:42:47.284Z,2.60
2023-05-21T01:45:16.851Z,3.22
2023-05-21T01:47:49.220Z,2.97
2023-05-21T01:50:18.195Z,2.80
2023-05-21T01:53:01.692Z,2.67
2023-05-21T01:55:31.426Z,3.40
2023-05-21T01:58:00.639Z,3.55
2023-05-21T02:00:30.109Z,2.88
2023-05-21T02:02:57.766Z,3.30
2023-05-21T02:05:25.533Z,4.55
2023-05-21T02:07:53.378Z,3.17
2023-05-21T02:10:21.124Z,3.20
2023-05-21T02:12:48.870Z,4.15
2023-05-21T02:15:18.581Z,4.53
2023-05-21T02:17:47.084Z,5.07
2023-05-21T02:20:15.230Z,4.18
2023-05-21T02:22:46.829Z,4.63
2023-05-21T02:25:17.271Z,3.70
2023-05-21T02:27:47.656Z,3.67
2023-05-21T02:30:16.268Z,4.18
2023-05-21T02:32:44.197Z,3.45
2023-05-21T02:35:12.780Z,4.88
2023-05-21T02:37:44.689Z,4.07
2023-05-21T02:40:12.713Z,4.53
2023-05-21T02:42:40.931Z,3.50
2023-05-21T02:45:12.489Z,4.60
2023-05-21T02:47:40.175Z,4.63
2023-05-21T02:50:08.576Z,4.60
2023-05-21T02:52:36.338Z,4.03
2023-05-21T02:55:03.943Z,4.72
2023-05-21T02:57:31.507Z,4.65
2023-05-21T02:59:59.112Z,5.93
2023-05-21T03:02:27.408Z,3.70
2023-05-21T03:04:57.762Z,4.50
2023-05-21T03:07:25.426Z,5.05
2023-05-21T03:09:57.072Z,5.35
2023-05-21T03:12:26.796Z,4.07
2023-05-21T03:14:54.384Z,4.90
2023-05-21T03:17:23.230Z,4.80
2023-05-21T03:19:50.902Z,3.92
2023-05-21T03:22:18.517Z,5.32
2023-05-21T03:24:46.067Z,4.57
2023-05-21T03:27:13.654Z,3.85
2023-05-21T03:29:41.948Z,5.93
2023-05-21T03:32:09.664Z,3.90
2023-05-21T03:34:37.353Z,4.32
2023-05-21T03:37:04.991Z,4.85
2023-05-21T03:39:32.576Z,5.10
2023-05-21T03:42:00.266Z,5.50
2023-05-21T03:44:28.621Z,4.63
2023-05-21T03:46:56.399Z,5.53
2023-05-21T03:49:23.900Z,3.50
2023-05-21T03:51:51.631Z,3.85
2023-05-21T03:54:19.751Z,6.55
2023-05-21T03:56:47.504Z,4.38
2023-05-21T03:59:15.148Z,4.78
2023-05-21T04:01:43.329Z,5.57
2023-05-21T04:04:11.074Z,4.63
2023-05-21T04:06:39.025Z,4.30
2023-05-21T04:09:06.740Z,4.57
2023-05-21T04:11:34.355Z,5.55
2023-05-21T04:14:04.136Z,4.53
2023-05-21T04:16:31.944Z,4.35
2023-05-21T04:18:59.718Z,3.88
2023-05-21T04:21:27.231Z,4.93
2023-05-21T04:23:55.063Z,4.80
2023-05-21T04:26:23.483Z,4.75
2023-05-21T04:28:51.286Z,4.88
2023-05-21T04:31:21.619Z,5.25
2023-05-21T04:33:49.263Z,4.25
2023-05-21T04:36:18.058Z,4.65
2023-05-21T04:38:45.619Z,4.20
2023-05-21T04:41:15.034Z,4.13
2023-05-21T04:43:44.704Z,4.07
2023-05-21T04:46:15.368Z,4.97
2023-05-21T04:48:43.066Z,4.88
2023-05-21T04:51:10.739Z,3.95
2023-05-21T04:53:42.247Z,3.63
2023-05-21T04:56:13.246Z,5.80
2023-05-21T04:58:41.622Z,4.40
2023-05-21T05:01:09.577Z,5.43
2023-05-21T05:03:37.447Z,4.78
2023-05-21T05:06:05.277Z,3.92
2023-05-21T05:08:32.780Z,4.88
2023-05-21T05:11:00.333Z,4.35
2023-05-21T05:13:27.994Z,4.65
2023-05-21T05:15:58.637Z,4.82
2023-05-21T05:18:26.493Z,4.75
2023-05-21T05:20:56.203Z,4.45
2023-05-21T05:23:23.810Z,4.40
2023-05-21T05:25:52.055Z,4.18
2023-05-21T05:28:19.681Z,5.90
2023-05-21T05:30:47.332Z,3.72
2023-05-21T05:33:15.183Z,4.45
2023-05-21T05:35:42.768Z,4.80
2023-05-21T05:38:10.432Z,6.28
2023-05-21T05:40:38.094Z,5.00
2023-05-21T05:43:05.838Z,5.03
2023-05-21T05:45:33.378Z,4.75
2023-05-21T05:48:00.994Z,5.55
2023-05-21T05:50:28.507Z,5.72
2023-05-21T05:52:58.722Z,4.55
2023-05-21T05:55:27.325Z,5.45
2023-05-21T05:57:58.108Z,4.97
2023-05-21T06:00:25.676Z,5.50
2023-05-21T06:02:53.355Z,5.78
2023-05-21T06:05:21.282Z,4.80
2023-05-21T06:07:48.871Z,5.70
2023-05-21T06:10:16.606Z,6.28
2023-05-21T06:12:44.296Z,6.53
2023-05-21T06:15:11.854Z,7.72
2023-05-21T06:17:39.514Z,4.97
2023-05-21T06:20:07.964Z,5.80
2023-05-21T06:22:35.715Z,5.30
2023-05-21T06:25:03.632Z,5.28
2023-05-21T06:27:31.416Z,5.63
2023-05-21T06:29:59.099Z,5.85
2023-05-21T06:32:26.835Z,5.90
2023-05-21T06:34:57.435Z,6.43
2023-05-21T06:37:26.547Z,6.10
2023-05-21T06:39:54.394Z,6.10
2023-05-21T06:42:22.170Z,6.38
2023-05-21T06:44:49.781Z,5.53
2023-05-21T06:47:17.649Z,5.40
2023-05-21T06:49:45.230Z,5.45
2023-05-21T06:52:12.801Z,7.15
2023-05-21T06:54:40.491Z,4.88
2023-05-21T06:57:08.081Z,6.15
2023-05-21T06:59:35.636Z,6.40
2023-05-21T07:02:04.637Z,6.68
2023-05-21T07:04:32.678Z,7.20
2023-05-21T07:07:00.205Z,6.97
2023-05-21T07:09:27.810Z,5.35
2023-05-21T07:11:55.488Z,5.57
2023-05-21T07:14:23.118Z,6.95
2023-05-21T07:16:50.924Z,6.65
2023-05-21T07:19:18.530Z,6.18
2023-05-21T07:21:46.891Z,7.05
2023-05-21T07:24:14.816Z,7.38
2023-05-21T07:26:43.149Z,5.85
2023-05-21T07:29:10.766Z,7.43
2023-05-21T07:31:39.396Z,6.72
2023-05-21T07:34:07.157Z,7.80
2023-05-21T07:36:34.763Z,6.55
2023-05-21T07:39:02.478Z,6.45
2023-05-21T07:41:30.778Z,6.47
2023-05-21T07:43:58.364Z,4.90
2023-05-21T07:46:25.966Z,6.97
2023-05-21T07:48:53.634Z,7.03
2023-05-21T07:51:21.124Z,6.68
2023-05-21T07:53:48.757Z,7.18
2023-05-21T07:56:16.515Z,6.90
2023-05-21T07:58:46.428Z,6.55
2023-05-21T08:01:14.121Z,7.07
2023-05-21T08:03:41.889Z,6.65
2023-05-21T08:06:09.502Z,8.63
2023-05-21T08:08:37.218Z,7.63
2023-05-21T08:11:04.838Z,6.82
2023-05-21T08:13:32.456Z,7.50
2023-05-21T08:16:00.171Z,8.13
2023-05-21T08:18:27.964Z,5.72
2023-05-21T08:20:56.394Z,6.88
2023-05-21T08:23:24.003Z,6.88
2023-05-21T08:25:52.518Z,7.00
2023-05-21T08:28:24.307Z,6.22
2023-05-21T08:30:51.937Z,6.47
2023-05-21T08:33:23.143Z,6.80
2023-05-21T08:35:53.730Z,6.80
2023-05-21T08:38:21.542Z,8.20
2023-05-21T08:40:51.006Z,6.05
2023-05-21T08:43:18.657Z,6.70
2023-05-21T08:45:47.611Z,7.88
2023-05-21T08:48:19.915Z,6.57
2023-05-21T08:50:48.036Z,6.07
2023-05-21T08:53:23.931Z,6.47
2023-05-21T08:55:59.216Z,6.22
2023-05-21T08:58:26.732Z,6.95
2023-05-21T09:00:55.452Z,6.05
2023-05-21T09:03:23.742Z,6.15
2023-05-21T09:05:52.532Z,6.22
2023-05-21T09:08:22.462Z,6.00
2023-05-21T09:10:51.488Z,6.07
2023-05-21T09:13:19.562Z,7.20
2023-05-21T09:15:47.761Z,4.72
2023-05-21T09:18:15.789Z,7.72
2023-05-21T09:20:44.785Z,6.20
2023-05-21T09:23:17.400Z,6.28
2023-05-21T09:25:48.824Z,5.90
2023-05-21T09:28:16.750Z,6.32
2023-05-21T09:30:54.413Z,6.35
2023-05-21T09:33:26.807Z,5.18
2023-05-21T09:35:54.530Z,7.18
2023-05-21T09:38:25.726Z,5.28
2023-05-21T09:40:56.365Z,5.68
2023-05-21T09:43:23.999Z,5.20
2023-05-21T09:45:56.129Z,5.32
2023-05-21T09:48:43.608Z,5.53
2023-05-21T09:51:15.356Z,6.35
2023-05-21T09:53:55.617Z,4.97
2023-05-21T09:56:25.397Z,5.15
2023-05-21T09:58:56.374Z,4.72
2023-05-21T10:01:27.160Z,6.00
2023-05-21T10:04:01.713Z,4.75
2023-05-21T10:06:30.602Z,4.97
2023-05-21T10:09:03.277Z,4.70
2023-05-21T10:11:33.200Z,5.78
2023-05-21T10:14:15.843Z,6.30
2023-05-21T10:16:43.703Z,4.32
2023-05-21T10:19:11.838Z,4.63
2023-05-21T10:21:40.552Z,4.60
2023-05-21T10:24:09.847Z,6.15
2023-05-21T10:26:40.119Z,5.95
2023-05-21T10:29:09.179Z,5.32
2023-05-21T10:31:36.972Z,4.68
2023-05-21T10:34:06.967Z,5.05
2023-05-21T10:36:35.237Z,3.40
2023-05-21T10:39:03.717Z,5.10
2023-05-21T10:41:36.813Z,5.57
2023-05-21T10:46:34.977Z,4.50
2023-05-21T10:49:13.994Z,4.85
2023-05-21T10:52:01.032Z,4.22
2023-05-21T10:54:39.726Z,6.03
2023-05-21T10:57:25.892Z,3.85
2023-05-21T10:59:53.944Z,5.10
2023-05-21T11:02:21.720Z,3.92
2023-05-21T11:04:52.466Z,4.45
2023-05-21T11:07:24.974Z,3.33
2023-05-21T11:09:52.839Z,4.30
2023-05-21T11:12:23.867Z,3.25
2023-05-21T11:14:58.012Z,3.63
2023-05-21T11:17:39.510Z,3.67
2023-05-21T11:20:16.569Z,4.13
2023-05-21T11:22:47.451Z,2.95
2023-05-21T11:25:16.230Z,4.68
2023-05-21T11:27:43.785Z,4.10
2023-05-21T11:30:15.396Z,3.00
2023-05-21T11:33:02.489Z,2.92
2023-05-21T11:35:30.040Z,3.30
2023-05-21T11:37:57.789Z,3.38
2023-05-21T11:40:30.891Z,3.15
2023-05-21T11:45:29.768Z,3.85
2023-05-21T11:47:57.531Z,2.97
2023-05-21T11:50:25.468Z,3.83
2023-05-21T11:52:53.418Z,4.63
2023-05-21T11:55:25.707Z,3.60
2023-05-21T11:57:54.086Z,3.47
2023-05-21T12:00:22.356Z,3.65
2023-05-21T12:02:54.247Z,4.28
2023-05-21T12:05:22.608Z,4.05
2023-05-21T12:07:55.323Z,2.90
2023-05-21T12:10:24.413Z,3.85
2023-05-21T12:12:55.684Z,3.42
2023-05-21T12:15:25.213Z,3.15
2023-05-21T12:17:53.637Z,4.03
2023-05-21T12:20:21.395Z,3.70
2023-05-21T12:22:52.390Z,2.83
2023-05-21T12:25:20.672Z,3.60
2023-05-21T12:27:49.249Z,2.95
2023-05-21T12:30:17.184Z,3.85
2023-05-21T12:32:45.022Z,3.25
2023-05-21T12:35:22.350Z,2.75
2023-05-21T12:37:51.343Z,2.63
2023-05-21T12:40:19.076Z,2.20
2023-05-21T12:42:50.587Z,3.35
2023-05-21T12:45:19.350Z,3.05
2023-05-21T12:47:50.722Z,3.03
2023-05-21T12:50:22.782Z,3.70
2023-05-21T12:52:50.449Z,3.77
2023-05-21T12:55:18.307Z,3.75
2023-05-21T12:57:49.379Z,3.85
2023-05-21T13:00:24.073Z,3.33
2023-05-21T13:02:52.495Z,2.60
2023-05-21T13:05:20.500Z,2.55
2023-05-21T13:07:52.344Z,2.88
2023-05-21T13:10:19.974Z,2.78
2023-05-21T13:12:47.808Z,3.67
2023-05-21T13:15:16.054Z,2.97
2023-05-21T13:17:43.552Z,3.03
2023-05-21T13:20:19.015Z,2.63
2023-05-21T13:22:47.600Z,3.30
2023-05-21T13:25:16.435Z,2.72
2023-05-21T13:27:44.169Z,2.53
2023-05-21T13:30:14.848Z,2.88
2023-05-21T13:32:43.195Z,4.38
2023-05-21T13:35:13.749Z,2.65
2023-05-21T13:37:41.876Z,3.92
2023-05-21T13:40:15.519Z,3.63
2023-05-21T13:42:47.453Z,3.65
2023-05-21T13:45:16.293Z,3.45
2023-05-21T13:47:44.651Z,3.15
2023-05-21T13:50:15.185Z,3.15
2023-05-21T13:52:42.766Z,3.05
2023-05-21T13:55:11.208Z,3.30
2023-05-21T13:57:42.961Z,2.63
2023-05-21T14:00:13.362Z,2.47
2023-05-21T14:02:42.327Z,2.33
2023-05-21T14:05:10.397Z,3.90
2023-05-21T14:07:41.136Z,2.45
2023-05-21T14:10:09.028Z,2.78
2023-05-21T14:12:37.125Z,3.33
2023-05-21T14:15:04.855Z,3.33
2023-05-21T14:17:32.543Z,3.20
2023-05-21T14:20:00.163Z,4.55
2023-05-21T14:22:27.929Z,2.42
2023-05-21T14:24:55.495Z,2.70
2023-05-21T14:27:23.205Z,2.80
2023-05-21T14:29:50.810Z,2.38
2023-05-21T14:32:20.053Z,2.20
2023-05-21T14:34:47.638Z,1.90
2023-05-21T14:37:15.302Z,3.50
2023-05-21T14:39:42.934Z,3.63
2023-05-21T14:42:10.491Z,3.17
2023-05-21T14:44:38.141Z,3.40
2023-05-21T14:47:05.790Z,3.17
2023-05-21T14:49:33.540Z,2.80
2023-05-21T14:52:01.287Z,3.35
2023-05-21T14:54:28.853Z,2.33
2023-05-21T14:56:56.339Z,2.90
2023-05-21T14:59:24.281Z,2.40
2023-05-21T15:01:51.865Z,3.97
2023-05-21T15:04:19.581Z,3.40
2023-05-21T15:06:47.295Z,2.70
2023-05-21T15:09:14.880Z,4.20
2023-05-21T15:11:44.697Z,3.95
2023-05-21T15:14:14.225Z,3.30
2023-05-21T15:16:41.957Z,2.65
2023-05-21T15:19:09.629Z,2.60
2023-05-21T15:21:37.310Z,2.83
2023-05-21T15:24:05.134Z,3.63
2023-05-21T15:26:32.743Z,2.47
2023-05-21T15:29:00.351Z,2.75
2023-05-21T15:31:32.069Z,2.50
2023-05-21T15:34:00.484Z,3.10
2023-05-21T15:36:28.426Z,3.55
2023-05-21T15:38:55.992Z,2.72
2023-05-21T15:41:24.853Z,2.33
2023-05-21T15:43:52.572Z,2.25
2023-05-21T15:46:20.164Z,3.05
2023-05-21T15:48:47.747Z,3.08
2023-05-21T15:51:15.769Z,3.35
2023-05-21T15:53:43.740Z,2.72
2023-05-21T15:56:12.048Z,2.17
2023-05-21T15:58:39.667Z,2.63
2023-05-21T16:01:07.386Z,2.35
2023-05-21T16:03:35.058Z,3.30
2023-05-21T16:06:02.658Z,2.80
2023-05-21T16:08:32.867Z,2.60
2023-05-21T16:11:00.723Z,3.20
2023-05-21T16:13:28.374Z,2.63
2023-05-21T16:15:56.125Z,2.20
2023-05-21T16:18:23.822Z,2.20
2023-05-21T16:20:51.485Z,3.45
2023-05-21T16:23:19.004Z,3.30
2023-05-21T16:25:48.674Z,2.33
2023-05-21T16:28:16.389Z,2.95
2023-05-21T16:30:43.947Z,2.13
2023-05-21T16:33:13.037Z,2.08
2023-05-21T16:35:40.745Z,1.95
2023-05-21T16:38:08.437Z,1.92
2023-05-21T16:40:36.266Z,2.20
2023-05-21T16:43:03.839Z,7.15
2023-05-21T16:45:36.134Z,20.23
2023-05-21T16:48:04.082Z,2.88
2023-05-21T16:50:31.655Z,2.00
2023-05-21T16:53:03.294Z,1.92
2023-05-21T16:55:31.585Z,1.47
2023-05-21T16:57:59.570Z,2.17
2023-05-21T17:00:28.052Z,1.98
2023-05-21T17:02:55.854Z,2.53
2023-05-21T17:05:26.060Z,1.63
2023-05-21T17:07:53.898Z,2.15
2023-05-21T17:10:21.586Z,2.70
2023-05-21T17:12:49.176Z,2.00
2023-05-21T17:15:16.811Z,2.83
2023-05-21T17:17:44.534Z,2.15
2023-05-21T17:20:12.697Z,1.98
2023-05-21T17:22:40.277Z,2.00
2023-05-21T17:25:08.362Z,2.15
2023-05-21T17:27:36.201Z,1.75
2023-05-21T17:30:07.755Z,2.25
2023-05-21T17:32:35.316Z,2.58
2023-05-21T17:35:03.246Z,1.95
2023-05-21T17:37:31.046Z,3.03
2023-05-21T17:39:58.650Z,1.92
2023-05-21T17:42:26.449Z,1.77
2023-05-21T17:44:54.997Z,1.85
2023-05-21T17:47:22.710Z,1.80
2023-05-21T17:49:50.383Z,2.38
2023-05-21T17:52:18.263Z,2.40
2023-05-21T17:54:45.855Z,2.35
2023-05-21T17:57:14.429Z,1.90
2023-05-21T17:59:45.690Z,2.88
2023-05-21T18:02:13.407Z,2.63
2023-05-21T18:04:41.041Z,2.20
2023-05-21T18:07:08.811Z,1.80
2023-05-21T18:09:36.655Z,1.73
2023-05-21T18:12:04.996Z,1.83
2023-05-21T18:14:32.776Z,2.50
2023-05-21T18:17:00.434Z,2.38
2023-05-21T18:19:28.130Z,1.88
2023-05-21T18:21:56.095Z,1.70
2023-05-21T18:24:23.581Z,2.65
2023-05-21T18:26:51.237Z,2.28
2023-05-21T18:29:18.907Z,2.72
2023-05-21T18:31:46.659Z,2.25
2023-05-21T18:34:14.427Z,2.50
2023-05-21T18:36:42.079Z,2.55
2023-05-21T18:39:10.211Z,1.98
2023-05-21T18:41:37.956Z,2.08
2023-05-21T18:44:06.702Z,2.17
2023-05-21T18:46:39.289Z,2.15
2023-05-21T18:49:07.392Z,2.47
2023-05-21T18:51:35.051Z,1.88
2023-05-21T18:54:02.724Z,2.22
2023-05-21T18:56:30.389Z,3.40
2023-05-21T18:58:57.955Z,2.42
2023-05-21T19:01:25.740Z,2.20
2023-05-21T19:03:53.457Z,2.35
2023-05-21T19:06:25.880Z,2.25
2023-05-21T19:08:53.764Z,2.33
2023-05-21T19:11:23.589Z,2.00
2023-05-21T19:13:51.647Z,2.53
2023-05-21T19:16:19.431Z,2.30
2023-05-21T19:18:47.025Z,2.15
2023-05-21T19:21:14.549Z,2.13
2023-05-21T19:23:52.639Z,1.40
2023-05-21T19:26:23.874Z,2.50
2023-05-21T19:28:54.111Z,2.10
2023-05-21T19:31:22.371Z,1.88
2023-05-21T19:33:52.470Z,2.60
2023-05-21T19:36:21.165Z,2.85
2023-05-21T19:38:51.991Z,2.20
2023-05-21T19:41:20.594Z,2.70
2023-05-21T19:43:48.419Z,2.60
2023-05-21T19:46:19.107Z,2.03
2023-05-21T19:48:47.541Z,2.10
2023-05-21T19:51:15.180Z,2.00
2023-05-21T19:53:42.980Z,1.90
2023-05-21T19:56:10.692Z,2.08
2023-05-21T19:58:38.290Z,1.52
2023-05-21T20:01:06.802Z,2.25
2023-05-21T20:03:36.525Z,1.92
2023-05-21T20:06:04.492Z,2.50
2023-05-21T20:08:32.114Z,2.10
2023-05-21T20:11:02.455Z,2.17
2023-05-21T20:13:30.075Z,2.55
2023-05-21T20:15:57.679Z,1.80
2023-05-21T20:18:25.726Z,2.45
2023-05-21T20:20:53.700Z,1.88
2023-05-21T20:23:21.457Z,1.92
2023-05-21T20:25:49.026Z,2.55
2023-05-21T20:28:16.792Z,2.15
2023-05-21T20:30:55.044Z,2.13
2023-05-21T20:33:22.856Z,1.98
2023-05-21T20:35:50.454Z,2.80
2023-05-21T20:38:21.673Z,1.90
2023-05-21T20:40:49.367Z,1.92
2023-05-21T20:43:19.235Z,1.38
2023-05-21T20:45:49.365Z,2.35
2023-05-21T20:48:17.688Z,1.80
2023-05-21T20:50:46.421Z,2.50
2023-05-21T20:53:16.342Z,2.53
2023-05-21T20:55:45.190Z,3.20
2023-05-21T20:58:12.883Z,1.73
2023-05-21T21:00:42.609Z,1.70
2023-05-21T21:03:13.600Z,2.47
2023-05-21T21:05:41.331Z,2.22
2023-05-21T21:08:08.907Z,2.33
2023-05-21T21:10:38.136Z,1.70
2023-05-21T21:13:07.661Z,1.88
2023-05-21T21:15:35.422Z,2.00
2023-05-21T21:18:04.078Z,1.95
2023-05-21T21:20:31.779Z,2.00
2023-05-21T21:22:59.437Z,5.50
2023-05-21T21:25:27.207Z,2.10
2023-05-21T21:27:54.950Z,3.50
2023-05-21T21:30:22.542Z,1.50
2023-05-21T21:32:50.296Z,1.85
2023-05-21T21:35:17.917Z,1.98
2023-05-21T21:37:45.447Z,2.17
2023-05-21T21:40:13.493Z,2.53
2023-05-21T21:42:42.706Z,2.72
2023-05-21T21:45:11.015Z,3.22
2023-05-21T21:47:38.728Z,2.22
2023-05-21T21:50:07.410Z,2.28
2023-05-21T21:52:35.079Z,2.15
2023-05-21T21:55:03.587Z,1.90
2023-05-21T21:57:31.199Z,17.48
2023-05-21T21:59:59.978Z,14.65
2023-05-21T22:02:28.200Z,1.90
2023-05-21T22:04:56.533Z,2.20
2023-05-21T22:07:24.468Z,1.90
2023-05-21T22:09:52.145Z,1.88
2023-05-21T22:12:20.070Z,2.00
2023-05-21T22:14:47.689Z,2.67
2023-05-21T22:17:18.563Z,1.60
2023-05-21T22:19:46.129Z,3.05
2023-05-21T22:22:14.704Z,2.35
2023-05-21T22:24:42.236Z,2.45
2023-05-21T22:27:09.901Z,1.80
2023-05-21T22:29:37.499Z,2.08
2023-05-21T22:32:06.459Z,1.90
2023-05-21T22:34:34.151Z,2.92
2023-05-21T22:37:03.733Z,2.58
2023-05-21T22:39:31.523Z,2.50
2023-05-21T22:41:59.132Z,2.03
2023-05-21T22:44:26.870Z,2.60
2023-05-21T22:46:57.017Z,2.40
2023-05-21T22:49:27.860Z,3.53
2023-05-21T22:51:55.444Z,1.73
2023-05-21T22:54:23.389Z,2.13
2023-05-21T22:56:51.534Z,2.70
2023-05-21T22:59:19.121Z,2.03
2023-05-21T23:01:46.834Z,2.50
2023-05-21T23:04:15.853Z,2.35
2023-05-21T23:06:43.608Z,2.15
2023-05-21T23:09:11.603Z,2.13
2023-05-21T23:11:45.206Z,2.17
2023-05-21T23:14:12.806Z,3.65
2023-05-21T23:16:49.097Z,3.28
2023-05-21T23:19:17.812Z,2.83
2023-05-21T23:21:48.573Z,1.88
2023-05-21T23:24:17.133Z,2.70
2023-05-21T23:26:46.336Z,3.03
2023-05-21T23:29:13.990Z,2.53
2023-05-21T23:31:41.784Z,3.53
2023-05-21T23:34:10.684Z,4.75
2023-05-21T23:36:38.513Z,3.15
2023-05-21T23:39:06.486Z,2.85
2023-05-21T23:41:34.249Z,3.33
2023-05-21T23:44:05.479Z,3.45
2023-05-21T23:46:33.056Z,3.75
2023-05-21T23:49:00.651Z,3.40
2023-05-21T23:51:28.281Z,3.20
2023-05-21T23:53:55.880Z,3.65
2023-05-21T23:56:23.577Z,4.53
2023-05-21T23:58:51.447Z,3.95
